createdAt,value
2018-04-27T00:02:13.779Z,94.57
2018-04-27T00:04:43.161Z,95.01
2018-04-27T00:07:12.819Z,94.66
2018-04-27T00:09:41.911Z,93.96
2018-04-27T00:12:10.201Z,93.49
2018-04-27T00:14:38.483Z,93.14
2018-04-27T00:17:06.898Z,92.86
2018-04-27T00:19:35.726Z,92.79
2018-04-27T00:22:04.905Z,92.97
2018-04-27T00:24:34.023Z,93.55
2018-04-27T00:27:02.386Z,94.86
2018-04-27T00:29:30.905Z,93.58
2018-04-27T00:31:59.202Z,93.57
2018-04-27T00:34:27.481Z,93.68
2018-04-27T00:36:56.038Z,93.15
2018-04-27T00:39:24.309Z,93.54
2018-04-27T00:41:53.068Z,93.82
2018-04-27T00:44:21.665Z,94.52
2018-04-27T00:46:50.392Z,94.20
2018-04-27T00:49:19.358Z,93.99
2018-04-27T00:51:47.781Z,93.97
2018-04-27T00:54:18.736Z,93.68
2018-04-27T00:56:47.076Z,93.66
2018-04-27T00:59:16.098Z,93.96
2018-04-27T01:01:45.613Z,94.07
2018-04-27T01:04:14.873Z,94.40
2018-04-27T01:06:45.628Z,94.72
2018-04-27T01:09:15.929Z,95.15
2018-04-27T01:11:44.729Z,94.83
2018-04-27T01:14:14.554Z,94.80
2018-04-27T01:16:42.968Z,94.78
2018-04-27T01:19:11.571Z,94.69
2018-04-27T01:21:40.344Z,94.87
2018-04-27T01:24:08.698Z,94.83
2018-04-27T01:26:37.207Z,94.89
2018-04-27T01:29:06.515Z,95.11
2018-04-27T01:31:35.538Z,95.49
2018-04-27T01:34:04.080Z,96.39
2018-04-27T01:36:32.518Z,97.02
2018-04-27T01:39:01.404Z,95.81
2018-04-27T01:41:31.516Z,95.67
2018-04-27T01:43:59.869Z,95.23
2018-04-27T01:46:28.539Z,95.31
2018-04-27T01:48:58.405Z,95.49
2018-04-27T01:51:28.333Z,95.47
2018-04-27T01:53:56.611Z,95.23
2018-04-27T01:56:25.234Z,95.47
2018-04-27T01:58:53.800Z,96.62
2018-04-27T02:01:23.347Z,97.30
2018-04-27T02:03:52.871Z,97.40
2018-04-27T02:06:21.856Z,97.78
2018-04-27T02:08:50.171Z,97.51
2018-04-27T02:11:19.227Z,97.28
2018-04-27T02:13:48.834Z,97.53
2018-04-27T02:16:17.323Z,97.34
2018-04-27T02:18:45.922Z,97.62
2018-04-27T02:21:15.668Z,97.40
2018-04-27T02:23:44.466Z,97.35
2018-04-27T02:26:12.815Z,97.54
2018-04-27T02:28:41.143Z,97.64
2018-04-27T02:31:09.485Z,97.66
2018-04-27T02:33:38.138Z,97.65
2018-04-27T02:36:06.435Z,97.35
2018-04-27T02:38:34.706Z,97.35
2018-04-27T02:41:02.986Z,97.95
2018-04-27T02:43:31.307Z,97.73
2018-04-27T02:46:00.022Z,97.47
2018-04-27T02:48:28.809Z,97.68
2018-04-27T02:50:57.170Z,97.49
2018-04-27T02:53:25.448Z,98.43
2018-04-27T02:55:53.939Z,97.47
2018-04-27T02:58:22.227Z,98.17
2018-04-27T03:00:50.698Z,97.66
2018-04-27T03:03:18.947Z,98.12
2018-04-27T03:05:47.251Z,97.38
2018-04-27T03:08:15.515Z,97.29
2018-04-27T03:10:43.819Z,97.89
2018-04-27T03:13:15.050Z,97.32
2018-04-27T03:15:43.378Z,97.99
2018-04-27T03:18:11.971Z,97.29
2018-04-27T03:20:40.335Z,97.19
2018-04-27T03:23:08.626Z,97.40
2018-04-27T03:25:37.431Z,98.08
2018-04-27T03:28:05.664Z,97.91
2018-04-27T03:30:33.956Z,97.82
2018-04-27T03:33:02.213Z,97.05
2018-04-27T03:35:30.663Z,97.01
2018-04-27T03:37:58.927Z,97.41
2018-04-27T03:40:27.283Z,97.64
2018-04-27T03:42:55.646Z,97.25
2018-04-27T03:45:24.306Z,97.51
2018-04-27T03:47:52.595Z,97.54
2018-04-27T03:50:20.919Z,97.80
2018-04-27T03:52:49.416Z,97.94
2018-04-27T03:55:17.752Z,97.88
2018-04-27T03:57:46.131Z,97.86
2018-04-27T04:05:20.851Z,97.76
2018-04-27T04:07:49.579Z,97.34
2018-04-27T04:10:19.048Z,97.21
2018-04-27T04:12:47.502Z,96.95
2018-04-27T04:15:16.983Z,97.33
2018-04-27T04:17:46.537Z,97.19
2018-04-27T04:20:17.595Z,97.40
2018-04-27T04:22:46.227Z,97.04
2018-04-27T04:25:14.643Z,97.23
2018-04-27T04:27:43.126Z,97.15
2018-04-27T04:30:12.494Z,97.39
2018-04-27T04:32:40.839Z,97.35
2018-04-27T04:35:09.125Z,97.22
2018-04-27T04:37:37.700Z,97.73
2018-04-27T04:40:06.107Z,97.01
2018-04-27T04:42:34.993Z,96.65
2018-04-27T04:45:04.747Z,95.08
2018-04-27T04:47:33.149Z,95.37
2018-04-27T04:50:02.866Z,94.00
2018-04-27T04:52:33.312Z,93.68
2018-04-27T04:55:02.372Z,93.77
2018-04-27T04:57:31.415Z,94.21
2018-04-27T05:00:01.377Z,93.85
2018-04-27T05:02:30.538Z,93.25
2018-04-27T05:05:01.289Z,93.37
2018-04-27T05:07:31.466Z,92.99
2018-04-27T05:10:02.228Z,92.92
2018-04-27T05:12:33.712Z,93.16
2018-04-27T05:15:05.607Z,92.26
2018-04-27T05:17:37.300Z,91.91
2018-04-27T05:20:05.401Z,91.02
2018-04-27T05:22:34.028Z,90.62
2018-04-27T05:25:03.191Z,91.30
2018-04-27T05:27:33.653Z,90.86
2018-04-27T05:30:05.142Z,90.97
2018-04-27T05:32:35.894Z,91.62
2018-04-27T05:35:04.191Z,90.17
2018-04-27T05:37:33.991Z,89.60
2018-04-27T05:40:04.404Z,87.83
2018-04-27T05:42:33.004Z,88.14
2018-04-27T05:45:02.434Z,88.06
2018-04-27T05:47:31.970Z,86.86
2018-04-27T05:50:00.328Z,87.20
2018-04-27T05:52:28.684Z,86.90
2018-04-27T05:54:57.157Z,86.59
2018-04-27T05:57:25.439Z,85.43
2018-04-27T05:59:54.022Z,84.95
2018-04-27T06:02:22.416Z,84.30
2018-04-27T06:04:50.727Z,83.84
2018-04-27T06:07:19.046Z,83.46
2018-04-27T06:09:47.513Z,82.82
2018-04-27T06:12:16.265Z,81.05
2018-04-27T06:14:45.009Z,81.84
2018-04-27T06:17:13.318Z,81.37
2018-04-27T06:19:41.831Z,82.22
2018-04-27T06:22:10.288Z,80.82
2018-04-27T06:24:38.738Z,80.11
2018-04-27T06:27:07.274Z,80.45
2018-04-27T06:29:35.560Z,80.42
2018-04-27T06:32:03.980Z,79.81
2018-04-27T06:34:32.460Z,79.63
2018-04-27T06:37:00.760Z,79.36
2018-04-27T06:39:29.127Z,78.30
2018-04-27T06:41:57.406Z,77.64
2018-04-27T06:44:25.706Z,77.84
2018-04-27T06:46:54.072Z,76.74
2018-04-27T06:49:22.338Z,76.47
2018-04-27T06:51:50.740Z,76.62
2018-04-27T06:54:19.140Z,75.73
2018-04-27T06:56:47.449Z,75.48
2018-04-27T06:59:15.867Z,74.19
2018-04-27T07:01:44.087Z,74.19
2018-04-27T07:04:12.421Z,73.88
2018-04-27T07:06:40.763Z,72.96
2018-04-27T07:09:09.400Z,72.99
2018-04-27T07:11:37.732Z,71.94
2018-04-27T07:14:06.123Z,72.94
2018-04-27T07:16:34.611Z,72.53
2018-04-27T07:19:03.032Z,71.90
2018-04-27T07:21:31.362Z,70.93
2018-04-27T07:23:59.671Z,69.62
2018-04-27T07:26:28.023Z,69.61
2018-04-27T07:28:56.468Z,68.99
2018-04-27T07:31:25.714Z,67.70
2018-04-27T07:33:54.234Z,66.34
2018-04-27T07:36:22.858Z,67.37
2018-04-27T07:38:51.150Z,66.84
2018-04-27T07:41:19.451Z,66.24
2018-04-27T07:43:48.207Z,67.09
2018-04-27T07:46:16.502Z,66.53
2018-04-27T07:48:44.831Z,65.77
2018-04-27T07:51:13.120Z,66.11
2018-04-27T07:53:41.474Z,65.32
2018-04-27T07:56:10.021Z,65.70
2018-04-27T07:58:38.564Z,66.50
2018-04-27T08:01:06.874Z,66.95
2018-04-27T08:03:35.298Z,66.56
2018-04-27T08:06:03.607Z,66.16
2018-04-27T08:08:32.102Z,65.79
2018-04-27T08:11:00.590Z,66.26
2018-04-27T08:13:28.978Z,65.78
2018-04-27T08:15:57.655Z,63.59
2018-04-27T08:18:26.010Z,63.44
2018-04-27T08:20:54.598Z,63.98
2018-04-27T08:23:24.946Z,63.45
2018-04-27T08:25:53.398Z,64.11
2018-04-27T08:28:22.172Z,62.62
2018-04-27T08:30:50.548Z,62.39
2018-04-27T08:33:18.891Z,61.37
2018-04-27T08:35:47.207Z,58.72
2018-04-27T08:38:15.470Z,60.20
2018-04-27T08:40:43.999Z,60.39
2018-04-27T08:43:12.630Z,58.92
2018-04-27T08:45:40.970Z,58.71
2018-04-27T08:48:09.400Z,58.95
2018-04-27T08:50:37.747Z,58.63
2018-04-27T08:53:05.986Z,57.38
2018-04-27T08:55:34.307Z,56.46
2018-04-27T08:58:02.578Z,56.94
2018-04-27T09:00:30.908Z,54.57
2018-04-27T09:02:59.229Z,54.63
2018-04-27T09:05:27.878Z,53.40
2018-04-27T09:07:56.127Z,53.37
2018-04-27T09:10:25.120Z,54.01
2018-04-27T09:12:53.538Z,53.47
2018-04-27T09:15:21.877Z,52.23
2018-04-27T09:17:50.218Z,50.81
2018-04-27T09:20:18.571Z,50.27
2018-04-27T09:22:47.135Z,48.98
2018-04-27T09:26:18.587Z,48.82
2018-04-27T09:28:46.914Z,50.73
2018-04-27T09:31:15.218Z,51.62
2018-04-27T09:33:43.727Z,50.94
2018-04-27T09:36:12.016Z,50.96
2018-04-27T09:38:40.473Z,50.30
2018-04-27T09:41:09.025Z,49.47
2018-04-27T09:43:37.358Z,49.90
2018-04-27T09:46:05.682Z,50.29
2018-04-27T09:48:33.991Z,48.95
2018-04-27T09:51:02.306Z,47.96
2018-04-27T09:53:30.790Z,48.15
2018-04-27T09:55:59.501Z,48.12
2018-04-27T09:58:27.807Z,48.89
2018-04-27T10:00:56.109Z,47.84
2018-04-27T10:03:24.434Z,48.57
2018-04-27T10:05:53.390Z,46.64
2018-04-27T10:08:21.664Z,46.31
2018-04-27T10:10:49.946Z,47.37
2018-04-27T10:13:18.217Z,46.79
2018-04-27T10:15:46.679Z,47.75
2018-04-27T10:18:15.117Z,46.43
2018-04-27T10:20:43.426Z,45.87
2018-04-27T10:23:11.687Z,45.59
2018-04-27T10:25:39.992Z,45.92
2018-04-27T10:28:08.414Z,46.11
2018-04-27T10:30:36.707Z,45.39
2018-04-27T10:33:04.986Z,45.70
2018-04-27T10:35:33.291Z,44.11
2018-04-27T10:38:01.532Z,41.86
2018-04-27T10:40:29.844Z,43.63
2018-04-27T10:42:58.245Z,41.80
2018-04-27T10:45:26.541Z,41.14
2018-04-27T10:47:54.932Z,43.41
2018-04-27T10:50:23.427Z,42.94
2018-04-27T10:52:51.666Z,38.71
2018-04-27T10:55:19.987Z,37.60
2018-04-27T10:57:48.270Z,39.03
2018-04-27T11:00:17.449Z,40.43
2018-04-27T11:02:45.857Z,39.04
2018-04-27T11:05:14.150Z,39.54
2018-04-27T11:08:45.754Z,36.49
2018-04-27T11:11:14.079Z,37.07
2018-04-27T11:13:42.404Z,38.69
2018-04-27T11:16:10.796Z,35.35
2018-04-27T11:18:39.135Z,37.33
2018-04-27T11:21:07.429Z,35.81
2018-04-27T11:23:35.756Z,35.13
2018-04-27T11:26:04.218Z,33.76
2018-04-27T11:28:32.442Z,33.23
2018-04-27T11:31:01.211Z,33.02
2018-04-27T11:33:30.282Z,35.49
2018-04-27T11:35:59.106Z,36.04
2018-04-27T11:38:27.373Z,37.44
2018-04-27T11:40:55.710Z,35.87
2018-04-27T11:43:23.969Z,32.93
2018-04-27T11:45:52.262Z,37.23
2018-04-27T11:48:20.510Z,37.27
2018-04-27T11:50:48.963Z,35.81
2018-04-27T11:53:17.342Z,34.17
2018-04-27T11:55:45.618Z,33.54
2018-04-27T11:58:13.871Z,29.85
2018-04-27T12:00:49.047Z,30.25
2018-04-27T12:03:17.327Z,30.75
2018-04-27T12:05:45.607Z,29.96
2018-04-27T12:08:13.873Z,31.55
2018-04-27T12:10:42.241Z,32.34
2018-04-27T12:13:10.662Z,31.69
2018-04-27T12:15:38.973Z,30.38
2018-04-27T12:18:07.281Z,30.47
2018-04-27T12:20:35.607Z,29.08
2018-04-27T12:23:03.878Z,28.53
2018-04-27T12:25:32.363Z,27.77
2018-04-27T12:28:00.728Z,29.26
2018-04-27T12:30:29.035Z,28.63
2018-04-27T12:32:57.717Z,29.29
2018-04-27T12:35:26.292Z,29.37
2018-04-27T12:38:06.089Z,30.27
2018-04-27T12:40:38.232Z,30.91
2018-04-27T12:43:09.677Z,29.16
2018-04-27T12:45:41.402Z,28.12
2018-04-27T12:48:09.715Z,28.34
2018-04-27T12:50:40.499Z,26.99
2018-04-27T12:53:09.491Z,26.39
2018-04-27T12:55:38.151Z,27.09
2018-04-27T12:58:08.130Z,26.19
2018-04-27T13:00:38.857Z,26.55
2018-04-27T13:03:08.669Z,27.17
2018-04-27T13:05:37.004Z,27.54
2018-04-27T13:08:08.399Z,27.32
2018-04-27T13:10:37.004Z,29.48
2018-04-27T13:13:05.809Z,28.84
2018-04-27T13:15:34.202Z,30.35
2018-04-27T13:18:03.895Z,29.00
2018-04-27T13:20:32.559Z,29.02
2018-04-27T13:23:00.796Z,29.96
2018-04-27T13:25:29.116Z,31.27
2018-04-27T13:27:57.716Z,30.64
2018-04-27T13:30:26.092Z,31.90
2018-04-27T13:32:54.371Z,31.79
2018-04-27T13:35:22.721Z,32.48
2018-04-27T13:37:51.095Z,32.56
2018-04-27T13:40:19.463Z,31.84
2018-04-27T13:42:47.827Z,32.01
2018-04-27T13:45:16.139Z,32.48
2018-04-27T13:47:44.451Z,33.28
2018-04-27T13:50:12.790Z,32.75
2018-04-27T13:52:41.048Z,32.77
2018-04-27T13:55:09.364Z,32.03
2018-04-27T13:57:37.653Z,32.00
2018-04-27T14:00:11.380Z,29.72
2018-04-27T14:02:40.758Z,28.71
2018-04-27T14:05:09.013Z,28.08
2018-04-27T14:07:37.448Z,29.52
2018-04-27T14:10:05.779Z,27.53
2018-04-27T14:12:34.099Z,29.38
2018-04-27T14:15:02.331Z,29.04
2018-04-27T14:17:30.841Z,32.24
2018-04-27T14:19:59.181Z,33.23
2018-04-27T14:22:27.677Z,33.69
2018-04-27T14:24:55.926Z,33.40
2018-04-27T14:27:24.257Z,32.77
2018-04-27T14:29:52.547Z,30.41
2018-04-27T14:32:21.320Z,31.92
2018-04-27T14:34:49.738Z,32.92
2018-04-27T14:37:18.030Z,33.97
2018-04-27T14:39:46.334Z,35.32
2018-04-27T14:42:14.760Z,36.05
2018-04-27T14:44:43.155Z,35.29
2018-04-27T14:47:11.485Z,34.98
2018-04-27T14:49:39.927Z,35.03
2018-04-27T14:52:08.262Z,35.47
2018-04-27T14:54:36.547Z,34.63
2018-04-27T14:57:04.930Z,35.80
2018-04-27T14:59:33.208Z,37.97
2018-04-27T15:02:01.523Z,37.51
2018-04-27T15:04:29.820Z,38.68
2018-04-27T15:06:58.096Z,34.93
2018-04-27T15:09:26.531Z,35.99
2018-04-27T15:11:55.035Z,37.99
2018-04-27T15:14:23.319Z,37.49
2018-04-27T15:16:51.869Z,38.78
2018-04-27T15:19:20.223Z,38.48
2018-04-27T15:21:48.548Z,38.04
2018-04-27T15:24:17.646Z,37.27
2018-04-27T15:26:45.947Z,36.86
2018-04-27T15:29:14.249Z,35.76
2018-04-27T15:31:42.623Z,35.65
2018-04-27T15:34:11.046Z,36.71
2018-04-27T15:36:39.343Z,36.49
2018-04-27T15:39:07.612Z,38.55
2018-04-27T15:41:35.929Z,38.92
2018-04-27T15:44:04.270Z,37.87
2018-04-27T15:46:32.773Z,37.04
2018-04-27T15:49:01.587Z,38.42
2018-04-27T15:51:29.998Z,37.49
2018-04-27T15:53:58.281Z,37.73
2018-04-27T15:56:26.578Z,37.65
2018-04-27T15:58:54.857Z,37.19
2018-04-27T16:01:23.148Z,36.46
2018-04-27T16:03:51.411Z,36.91
2018-04-27T16:06:19.760Z,36.12
2018-04-27T16:08:48.034Z,37.43
2018-04-27T16:11:16.358Z,39.42
2018-04-27T16:13:45.075Z,39.18
2018-04-27T16:16:13.479Z,38.82
2018-04-27T16:18:41.954Z,39.70
2018-04-27T16:21:10.354Z,39.32
2018-04-27T16:23:38.580Z,39.11
2018-04-27T16:26:06.910Z,37.73
2018-04-27T16:28:35.215Z,37.56
2018-04-27T16:33:46.359Z,36.86
2018-04-27T16:36:14.679Z,37.67
2018-04-27T16:38:42.992Z,37.41
2018-04-27T16:41:11.427Z,37.91
2018-04-27T16:43:39.962Z,38.46
2018-04-27T16:46:08.278Z,36.84
2018-04-27T16:48:37.385Z,38.17
2018-04-27T16:51:05.682Z,37.87
2018-04-27T16:53:33.933Z,37.95
2018-04-27T16:56:02.498Z,38.29
2018-04-27T16:58:30.810Z,39.11
2018-04-27T17:00:59.081Z,39.03
2018-04-27T17:03:27.346Z,39.43
2018-04-27T17:05:55.839Z,38.76
2018-04-27T17:08:24.067Z,39.01
2018-04-27T17:10:52.851Z,38.50
2018-04-27T17:13:21.428Z,39.05
2018-04-27T17:15:49.858Z,39.89
2018-04-27T17:18:18.130Z,39.95
2018-04-27T17:20:46.432Z,40.71
2018-04-27T17:23:14.749Z,40.00
2018-04-27T17:25:43.100Z,41.32
2018-04-27T17:28:11.526Z,41.60
2018-04-27T17:30:39.999Z,42.15
2018-04-27T17:33:08.666Z,41.55
2018-04-27T17:35:36.958Z,42.73
2018-04-27T17:38:05.219Z,43.51
2018-04-27T17:40:35.872Z,42.92
2018-04-27T17:43:05.699Z,42.84
2018-04-27T17:45:33.974Z,43.76
2018-04-27T17:48:02.335Z,44.12
2018-04-27T17:50:30.595Z,44.02
2018-04-27T17:52:58.858Z,43.86
2018-04-27T17:55:27.152Z,46.72
2018-04-27T17:57:55.579Z,48.23
2018-04-27T18:00:24.321Z,51.86
2018-04-27T18:02:52.610Z,54.34
2018-04-27T18:05:20.951Z,56.58
2018-04-27T18:07:49.661Z,49.39
2018-04-27T18:10:20.979Z,55.78
2018-04-27T18:12:53.927Z,56.87
2018-04-27T18:15:22.804Z,58.02
2018-04-27T18:17:56.797Z,60.33
2018-04-27T18:20:31.959Z,61.85
2018-04-27T18:23:00.548Z,63.19
2018-04-27T18:25:29.174Z,64.39
2018-04-27T18:27:57.497Z,60.99
2018-04-27T18:30:25.802Z,62.85
2018-04-27T18:32:55.338Z,63.24
2018-04-27T18:35:25.033Z,61.18
2018-04-27T18:37:54.630Z,61.67
2018-04-27T18:40:23.286Z,63.30
2018-04-27T18:42:51.571Z,64.00
2018-04-27T18:45:19.913Z,67.42
2018-04-27T18:47:48.385Z,67.52
2018-04-27T18:50:17.591Z,67.71
2018-04-27T18:52:47.793Z,68.18
2018-04-27T18:55:19.491Z,67.10
2018-04-27T18:57:48.587Z,66.88
2018-04-27T19:00:17.492Z,65.12
2018-04-27T19:02:46.522Z,64.64
2018-04-27T19:05:15.615Z,64.54
2018-04-27T19:07:45.201Z,67.98
2018-04-27T19:10:14.544Z,65.86
2018-04-27T19:12:46.128Z,66.54
2018-04-27T19:15:14.871Z,69.16
2018-04-27T19:17:44.762Z,68.28
2018-04-27T19:20:13.246Z,68.85
2018-04-27T19:22:42.890Z,70.20
2018-04-27T19:25:11.497Z,67.88
2018-04-27T19:27:39.823Z,69.05
2018-04-27T19:30:08.566Z,71.50
2018-04-27T19:32:37.082Z,70.56
2018-04-27T19:35:09.769Z,70.63
2018-04-27T19:37:38.633Z,68.06
2018-04-27T19:40:11.920Z,67.45
2018-04-27T19:42:42.480Z,68.41
2018-04-27T19:45:10.989Z,68.07
2018-04-27T19:47:39.726Z,69.62
2018-04-27T19:50:08.045Z,69.58
2018-04-27T19:52:36.338Z,70.84
2018-04-27T19:55:09.557Z,72.08
2018-04-27T19:57:40.929Z,72.36
2018-04-27T20:00:11.897Z,73.81
2018-04-27T20:02:45.627Z,72.18
2018-04-27T20:05:17.863Z,72.12
2018-04-27T20:07:46.532Z,72.69
2018-04-27T20:10:14.983Z,72.69
2018-04-27T20:12:43.428Z,69.41
2018-04-27T20:15:11.982Z,71.15
2018-04-27T20:17:40.555Z,72.32
2018-04-27T20:20:09.856Z,71.80
2018-04-27T20:22:38.542Z,69.78
2018-04-27T20:25:06.855Z,68.24
2018-04-27T20:27:35.830Z,70.40
2018-04-27T20:30:04.630Z,67.97
2018-04-27T20:32:33.332Z,67.02
2018-04-27T20:35:02.203Z,67.67
2018-04-27T20:37:31.290Z,65.51
2018-04-27T20:39:59.546Z,68.78
2018-04-27T20:42:28.097Z,71.14
2018-04-27T20:44:56.497Z,66.70
2018-04-27T20:47:24.834Z,69.97
2018-04-27T20:49:54.002Z,68.10
2018-04-27T20:52:26.686Z,71.49
2018-04-27T20:54:54.947Z,67.60
2018-04-27T20:57:23.303Z,70.62
2018-04-27T20:59:51.808Z,71.08
2018-04-27T21:02:20.298Z,69.76
2018-04-27T21:04:48.572Z,69.18
2018-04-27T21:07:17.018Z,69.48
2018-04-27T21:09:45.307Z,70.68
2018-04-27T21:12:13.758Z,70.01
2018-04-27T21:14:42.491Z,68.42
2018-04-27T21:17:10.895Z,69.03
2018-04-27T21:19:39.239Z,67.92
2018-04-27T21:22:07.891Z,68.37
2018-04-27T21:24:39.175Z,68.71
2018-04-27T21:27:08.906Z,69.85
2018-04-27T21:29:37.200Z,68.84
2018-04-27T21:32:05.919Z,68.04
2018-04-27T21:34:35.011Z,70.07
2018-04-27T21:37:03.607Z,69.67
2018-04-27T21:39:31.994Z,70.16
2018-04-27T21:42:01.676Z,69.83
2018-04-27T21:44:34.582Z,67.76
2018-04-27T21:47:03.392Z,69.41
2018-04-27T21:49:31.710Z,67.75
2018-04-27T21:52:00.711Z,68.26
2018-04-27T21:54:29.123Z,68.10
2018-04-27T21:56:58.370Z,67.01
2018-04-27T21:59:34.754Z,67.10
2018-04-27T22:02:05.109Z,69.74
2018-04-27T22:04:33.439Z,69.48
2018-04-27T22:07:04.216Z,69.24
2018-04-27T22:09:38.431Z,69.33
2018-04-27T22:12:09.406Z,69.14
2018-04-27T22:14:38.471Z,71.10
2018-04-27T22:17:07.744Z,69.37
2018-04-27T22:19:36.188Z,72.58
2018-04-27T22:22:04.490Z,70.88
2018-04-27T22:24:33.290Z,71.49
2018-04-27T22:27:01.799Z,73.38
2018-04-27T22:29:30.475Z,75.23
2018-04-27T22:31:59.306Z,74.01
2018-04-27T22:34:28.043Z,73.95
2018-04-27T22:36:57.333Z,70.25
2018-04-27T22:39:31.410Z,74.13
2018-04-27T22:41:59.980Z,74.55
2018-04-27T22:44:28.546Z,75.61
2018-04-27T22:46:57.103Z,74.77
2018-04-27T22:49:25.596Z,76.04
2018-04-27T22:51:53.880Z,72.83
2018-04-27T22:54:31.255Z,73.96
2018-04-27T22:56:59.830Z,73.65
2018-04-27T22:59:28.133Z,75.40
2018-04-27T23:01:56.468Z,72.09
2018-04-27T23:04:24.743Z,73.39
2018-04-27T23:06:53.134Z,74.99
2018-04-27T23:09:21.443Z,74.63
2018-04-27T23:11:49.748Z,75.31
2018-04-27T23:14:18.150Z,75.91
2018-04-27T23:16:46.507Z,76.75
2018-04-27T23:19:15.323Z,76.76
2018-04-27T23:21:43.898Z,78.49
2018-04-27T23:24:12.319Z,78.23
2018-04-27T23:26:40.654Z,78.76
2018-04-27T23:29:08.937Z,79.61
2018-04-27T23:31:37.527Z,79.94
2018-04-27T23:34:05.767Z,80.39
2018-04-27T23:36:34.085Z,79.42
2018-04-27T23:39:02.545Z,77.09
2018-04-27T23:41:33.197Z,78.88
2018-04-27T23:44:01.766Z,79.98
2018-04-27T23:46:30.115Z,79.22
2018-04-27T23:48:58.384Z,78.91
2018-04-27T23:51:26.812Z,78.42
2018-04-27T23:53:55.470Z,78.27
2018-04-27T23:56:25.331Z,79.14
2018-04-27T23:58:53.900Z,80.32
